Time;durP1;ratioP1;P1;durP2;ratioP2;P2;SDS_P1;SDS_P2;PMS_P1;PMS_P2;Temp;Humidity;BMP_temperature;BMP_pressure;BME280_temperature;BME280_humidity;BME280_pressure;Samples;Min_cycle;Max_cycle;Signal;HPM_P1;HPM_P2
2022/08/04 00:00:15;;;;;;;8.07;1.95;;;;;;;23.88;64.62;101028.81;5046956;28;20068;-71
2022/08/04 00:03:10;;;;;;;6.88;2.25;;;;;;;23.85;64.33;101031.16;5064807;28;20029;-71
2022/08/04 00:05:38;;;;;;;8.35;1.80;;;;;;;23.83;64.19;101033.22;5045613;28;20029;-70
2022/08/04 00:08:06;;;;;;;5.03;1.73;;;;;;;23.78;64.20;101028.59;5048066;28;20037;-70
2022/08/04 00:13:07;;;;;;;6.97;1.88;;;;;;;23.71;64.45;101027.94;5036511;28;20041;-75
2022/08/04 00:15:33;;;;;;;7.07;1.90;;;;;;;23.66;64.87;101026.03;5036935;28;20037;-76
2022/08/04 00:18:08;;;;;;;5.75;1.80;;;;;;;23.61;64.99;101025.94;5019272;28;20033;-75
2022/08/04 00:20:38;;;;;;;4.47;1.70;;;;;;;23.57;65.26;101029.28;5024917;28;20479;-75
2022/08/04 00:23:05;;;;;;;6.70;1.73;;;;;;;23.51;65.52;101029.19;5027286;28;20059;-75
2022/08/04 00:25:31;;;;;;;5.55;1.70;;;;;;;23.48;65.61;101029.66;5039774;28;20025;-75
2022/08/04 00:27:58;;;;;;;5.53;2.08;;;;;;;23.45;65.59;101024.03;5020390;28;20041;-75
2022/08/04 00:30:24;;;;;;;7.00;2.13;;;;;;;23.39;65.99;101027.63;5038055;28;20032;-76
2022/08/04 00:32:50;;;;;;;5.85;1.98;;;;;;;23.22;66.66;101025.72;5019941;28;20036;-75
2022/08/04 00:35:17;;;;;;;7.88;1.83;;;;;;;23.07;67.27;101026.22;5025489;28;20399;-75
2022/08/04 00:37:46;;;;;;;8.05;2.53;;;;;;;23.00;67.85;101022.06;5038071;28;20471;-74
2022/08/04 00:40:14;;;;;;;3.80;1.75;;;;;;;23.02;67.39;101018.16;5035815;28;20037;-74
2022/08/04 00:42:53;;;;;;;7.88;2.63;;;;;;;23.04;67.63;101015.31;5020669;28;20034;-76
2022/08/04 00:45:18;;;;;;;4.53;1.73;;;;;;;23.01;67.62;101010.47;5027831;28;20029;-75
2022/08/04 00:48:01;;;;;;;7.50;2.42;;;;;;;22.92;68.01;101012.66;5020111;28;20041;-75
2022/08/04 00:50:51;;;;;;;6.40;1.90;;;;;;;22.79;68.39;100999.69;5024492;28;20056;-75
2022/08/04 00:53:43;;;;;;;4.40;1.70;;;;;;;22.77;68.22;100997.28;5036431;28;20535;-75
2022/08/04 00:56:30;;;;;;;5.78;1.67;;;;;;;22.81;68.33;101003.72;5037371;28;20029;-75
2022/08/04 00:59:17;;;;;;;6.45;2.55;;;;;;;22.80;68.36;101003.97;5039770;28;20037;-74
2022/08/04 01:02:06;;;;;;;6.88;2.20;;;;;;;22.80;68.30;100998.69;5024725;28;20056;-75
2022/08/04 01:04:35;;;;;;;5.10;1.77;;;;;;;22.78;68.16;100993.63;5036480;28;20045;-75
2022/08/04 01:07:25;;;;;;;5.38;2.03;;;;;;;22.74;68.46;100995.13;5008644;28;20049;-74
2022/08/04 01:10:35;;;;;;;8.30;2.17;;;;;;;22.66;69.05;100993.63;5038513;28;20080;-75
2022/08/04 01:13:25;;;;;;;7.88;1.90;;;;;;;22.54;69.50;100985.69;4997554;28;20103;-75
2022/08/04 01:16:06;;;;;;;7.50;2.42;;;;;;;22.53;69.55;100991.25;5027684;28;20112;-75
2022/08/04 01:18:53;;;;;;;6.28;1.90;;;;;;;22.53;69.37;100978.81;5019155;28;20029;-75
2022/08/04 01:21:28;;;;;;;9.68;1.90;;;;;;;22.46;70.19;100982.63;5023529;28;20034;-75
2022/08/04 01:24:15;;;;;;;5.47;1.70;;;;;;;22.38;70.49;100977.66;5023535;28;20045;-75
2022/08/04 01:26:50;;;;;;;8.00;2.03;;;;;;;22.39;69.91;100981.94;5037333;28;20029;-75
2022/08/04 01:29:15;;;;;;;5.30;1.67;;;;;;;22.41;69.64;100974.56;5037130;28;20029;-75
2022/08/04 01:32:03;;;;;;;4.45;1.40;;;;;;;22.42;69.58;100977.00;5036438;28;20029;-76
2022/08/04 01:34:34;;;;;;;7.53;1.40;;;;;;;22.45;69.23;100971.25;5037047;28;20028;-75
2022/08/04 01:37:03;;;;;;;5.30;2.00;;;;;;;22.46;68.62;100974.69;5038153;28;20120;-75
2022/08/04 01:39:40;;;;;;;12.00;2.40;;;;;;;22.45;68.46;100975.72;5039600;28;20094;-75
2022/08/04 01:42:08;;;;;;;5.70;1.67;;;;;;;22.44;68.24;100979.41;5035111;28;20064;-75
2022/08/04 01:44:36;;;;;;;7.45;1.75;;;;;;;22.45;68.36;100975.72;5036753;28;20029;-74
2022/08/04 01:47:02;;;;;;;9.38;2.20;;;;;;;22.44;68.20;100971.50;5036311;28;20090;-75
2022/08/04 01:49:30;;;;;;;8.35;2.22;;;;;;;22.42;68.53;100969.06;5025961;28;20072;-74
2022/08/04 01:51:56;;;;;;;6.82;2.33;;;;;;;22.37;69.09;100966.31;5034226;28;20076;-75
2022/08/04 01:54:27;;;;;;;7.03;1.90;;;;;;;22.34;69.20;100964.16;5037705;28;20064;-75
2022/08/04 01:56:54;;;;;;;4.68;1.77;;;;;;;22.30;69.52;100963.81;5008139;28;20061;-75
2022/08/04 01:59:21;;;;;;;7.72;1.60;;;;;;;22.27;69.38;100961.59;5036806;28;20048;-75
2022/08/04 02:01:47;;;;;;;12.43;1.80;;;;;;;22.27;69.00;100963.44;5037436;28;20503;-75
2022/08/04 02:04:18;;;;;;;8.52;1.70;;;;;;;22.27;69.14;100963.44;5007917;28;20032;-75
2022/08/04 02:06:44;;;;;;;4.68;1.58;;;;;;;22.25;69.14;100958.41;5036909;28;20267;-75
2022/08/04 02:09:28;;;;;;;6.72;2.03;;;;;;;22.23;69.34;100951.72;5025400;28;20052;-75
2022/08/04 02:12:07;;;;;;;7.47;1.90;;;;;;;22.21;69.33;100948.47;5023934;28;20058;-75
2022/08/04 02:15:12;;;;;;;6.07;2.35;;;;;;;22.14;69.72;100949.41;5030648;28;20399;-75
2022/08/04 02:18:08;;;;;;;10.07;1.70;;;;;;;22.06;70.34;100955.03;5024647;28;20032;-75
2022/08/04 02:20:38;;;;;;;6.28;1.98;;;;;;;22.02;70.42;100953.06;5036418;28;20054;-75
2022/08/04 02:23:08;;;;;;;6.00;2.13;;;;;;;21.97;70.47;100957.19;5021706;28;20045;-76
2022/08/04 02:25:46;;;;;;;5.93;2.10;;;;;;;21.94;70.12;100952.38;5021694;28;20060;-76
2022/08/04 02:29:02;;;;;;;6.18;1.75;;;;;;;21.94;69.92;100955.03;5017085;28;20044;-75
2022/08/04 02:31:48;;;;;;;7.07;1.98;;;;;;;21.93;69.99;100950.75;5029514;28;20124;-75
2022/08/04 02:34:33;;;;;;;7.57;1.77;;;;;;;21.91;70.13;100949.41;5017577;28;20476;-75
2022/08/04 02:37:02;;;;;;;6.15;2.42;;;;;;;21.89;70.27;100943.53;5035107;28;20032;-75
2022/08/04 02:39:33;;;;;;;5.45;1.98;;;;;;;21.81;70.65;100939.38;5036623;28;20033;-75
2022/08/04 02:42:01;;;;;;;10.00;2.08;;;;;;;21.68;71.76;100939.59;5035741;28;20075;-74
2022/08/04 02:44:29;;;;;;;8.25;1.92;;;;;;;21.51;72.22;100942.88;5020361;28;20029;-75
2022/08/04 02:46:55;;;;;;;6.25;1.80;;;;;;;21.37;72.68;100936.16;5032382;28;20738;-75
2022/08/04 02:49:22;;;;;;;7.90;2.45;;;;;;;21.33;72.85;100932.34;5023661;28;20388;-75
2022/08/04 02:51:54;;;;;;;4.80;1.48;;;;;;;21.36;72.23;100940.63;5022350;28;20121;-76
2022/08/04 02:54:39;;;;;;;7.47;1.87;;;;;;;21.37;72.42;100938.78;5035364;28;20029;-75
2022/08/04 02:57:08;;;;;;;11.15;2.08;;;;;;;21.35;72.32;100932.94;5005912;28;20037;-75
2022/08/04 03:00:05;;;;;;;6.88;1.83;;;;;;;21.17;73.21;100929.31;5025360;28;20052;-75
2022/08/04 03:02:54;;;;;;;5.43;2.03;;;;;;;21.01;74.30;100916.75;5040218;28;20086;-75
2022/08/04 03:05:52;;;;;;;5.72;1.73;;;;;;;20.89;75.02;100915.88;5024326;28;20037;-75
2022/08/04 03:08:53;;;;;;;5.20;1.52;;;;;;;20.90;74.85;100917.50;4991190;28;20400;-75
2022/08/04 03:11:46;;;;;;;4.35;1.85;;;;;;;20.94;74.52;100916.81;5040035;28;20048;-75
2022/08/04 03:14:14;;;;;;;;;;;;;;;20.99;74.27;100914.34;5041734;28;20021;-75
2022/08/04 03:16:56;;;;;;;4.63;1.92;;;;;;;21.03;73.95;100916.53;5042807;28;19924;-76
2022/08/04 03:19:56;;;;;;;6.03;1.80;;;;;;;21.05;73.51;100910.00;5024972;28;20529;-75
2022/08/04 03:22:40;;;;;;;7.45;2.45;;;;;;;21.07;73.52;100913.22;5025240;28;20128;-75
2022/08/04 03:25:35;;;;;;;3.85;1.55;;;;;;;21.08;73.05;100920.13;5023462;28;20148;-75
2022/08/04 03:28:25;;;;;;;5.38;1.58;;;;;;;21.01;73.57;100914.13;5038974;28;20091;-74
2022/08/04 03:31:09;;;;;;;8.48;1.85;;;;;;;20.93;74.07;100914.44;5015647;28;20396;-75
2022/08/04 03:33:51;;;;;;;9.13;1.60;;;;;;;20.90;73.99;100917.50;5025320;28;20510;-75
2022/08/04 03:36:36;;;;;;;7.47;2.13;;;;;;;20.92;73.61;100908.34;5041264;28;20304;-76
2022/08/04 03:39:07;;;;;;;3.78;1.80;;;;;;;20.87;73.88;100913.50;5008130;28;20040;-74
2022/08/04 03:41:59;;;;;;;8.95;1.85;;;;;;;20.73;74.72;100912.81;5024379;28;20064;-75
2022/08/04 03:44:38;;;;;;;6.13;1.38;;;;;;;20.65;75.09;100899.97;5039105;28;20403;-75
2022/08/04 03:47:27;;;;;;;5.75;1.80;;;;;;;20.65;74.85;100899.16;5039650;28;20032;-75
2022/08/04 03:50:11;;;;;;;7.57;1.83;;;;;;;20.60;75.57;100902.44;5025113;28;20025;-74
2022/08/04 03:55:27;;;;;;;6.15;2.10;;;;;;;20.46;75.80;100896.50;5026043;28;20029;-75
2022/08/04 03:57:55;;;;;;;7.85;2.50;;;;;;;20.39;76.28;100896.53;5020908;28;20582;-75
2022/08/04 04:00:35;;;;;;;5.88;1.77;;;;;;;20.33;76.49;100894.78;5025231;28;20033;-75
2022/08/04 04:03:32;;;;;;;4.18;1.95;;;;;;;20.29;76.73;100896.25;5007199;28;20030;-75
2022/08/04 04:06:19;;;;;;;8.82;1.83;;;;;;;20.20;76.93;100903.63;5025693;28;20095;-75
2022/08/04 04:09:06;;;;;;;7.10;1.70;;;;;;;20.09;77.56;100899.06;5039716;28;20281;-75
2022/08/04 04:12:16;;;;;;;6.43;2.08;;;;;;;20.05;77.98;100902.38;5024677;28;20128;-75
2022/08/04 04:15:07;;;;;;;7.93;1.77;;;;;;;20.01;78.00;100910.69;5025947;28;20041;-75
2022/08/04 04:18:13;;;;;;;7.72;2.20;;;;;;;20.01;78.25;100912.50;5038310;28;20601;-75
2022/08/04 04:20:54;;;;;;;6.72;2.40;;;;;;;20.01;78.19;100905.41;5039905;28;20071;-75
2022/08/04 04:23:38;;;;;;;7.18;2.35;;;;;;;20.09;77.66;100903.53;5040163;28;20044;-74
2022/08/04 04:26:18;;;;;;;5.70;1.58;;;;;;;20.14;77.39;100904.50;5036432;28;21607;-75
2022/08/04 04:29:12;;;;;;;8.20;3.05;;;;;;;20.19;77.32;100911.72;5017388;28;20119;-74
2022/08/04 04:31:41;;;;;;;9.80;1.95;;;;;;;20.21;76.69;100912.31;5017756;28;20471;-75
2022/08/04 04:34:25;;;;;;;6.43;2.28;;;;;;;20.26;76.69;100909.06;5026091;28;20042;-76
2022/08/04 04:37:03;;;;;;;7.05;1.73;;;;;;;20.29;76.39;100912.06;5035598;28;20446;-75
2022/08/04 04:39:49;;;;;;;8.23;1.80;;;;;;;20.28;76.66;100912.28;5037816;28;20064;-75
2022/08/04 04:42:29;;;;;;;7.93;2.40;;;;;;;20.22;77.68;100911.31;5039281;28;20047;-75
2022/08/04 04:45:10;;;;;;;13.60;1.92;;;;;;;20.12;78.38;100916.28;5022424;28;20061;-75
2022/08/04 04:47:39;;;;;;;8.80;2.22;;;;;;;20.03;78.96;100915.72;5019141;28;20045;-75
2022/08/04 04:50:13;;;;;;;9.48;2.67;;;;;;;19.93;79.50;100912.78;5039027;28;20033;-76
2022/08/04 04:52:48;;;;;;;10.00;2.58;;;;;;;19.90;79.79;100914.00;5039722;28;20025;-76
2022/08/04 04:55:25;;;;;;;9.00;2.03;;;;;;;19.90;79.97;100910.59;5023782;28;20029;-76
2022/08/04 04:57:55;;;;;;;8.65;2.00;;;;;;;19.95;80.10;100919.44;5017874;28;20097;-77
2022/08/04 05:00:30;;;;;;;6.50;1.92;;;;;;;19.94;80.11;100912.56;5041436;28;20499;-77
2022/08/04 05:02:58;;;;;;;6.35;2.28;;;;;;;19.96;80.34;100915.78;5035631;28;20072;-76
2022/08/04 05:05:51;;;;;;;7.20;3.08;;;;;;;19.96;80.72;100918.41;5027153;28;20126;-77
2022/08/04 05:08:28;;;;;;;6.68;3.65;;;;;;;19.97;81.02;100927.94;5036486;28;20036;-76
2022/08/04 05:11:15;;;;;;;7.97;2.95;;;;;;;20.02;80.58;100925.47;5004762;28;20055;-75
2022/08/04 05:13:45;;;;;;;12.93;3.28;;;;;;;20.13;79.77;100929.19;5041520;28;20045;-76
2022/08/04 05:16:38;;;;;;;11.57;3.10;;;;;;;20.29;78.71;100927.06;5008499;28;20033;-77
2022/08/04 05:19:31;;;;;;;11.50;2.97;;;;;;;20.38;78.11;100931.81;5034849;28;20037;-76
2022/08/04 05:22:08;;;;;;;9.02;2.90;;;;;;;20.52;77.58;100919.31;5026840;28;20042;-76
2022/08/04 05:24:38;;;;;;;10.57;3.42;;;;;;;20.64;76.67;100918.59;5036659;28;20032;-76
2022/08/04 05:27:25;;;;;;;11.95;3.15;;;;;;;20.72;75.33;100916.50;5034100;28;21270;-77
2022/08/04 05:29:59;;;;;;;9.63;2.92;;;;;;;20.75;74.65;100918.66;5021498;28;20063;-76
2022/08/04 05:32:36;;;;;;;7.18;2.47;;;;;;;20.84;74.81;100918.38;5037237;28;20037;-76
2022/08/04 05:35:09;;;;;;;6.93;2.60;;;;;;;20.95;74.24;100915.81;5021481;28;20041;-76
2022/08/04 05:37:37;;;;;;;14.95;3.88;;;;;;;20.97;74.04;100908.47;5035648;28;20025;-76
2022/08/04 05:40:05;;;;;;;9.02;3.55;;;;;;;21.07;72.73;100907.94;5022348;28;20606;-76
2022/08/04 05:42:38;;;;;;;10.77;3.25;;;;;;;21.10;73.01;100912.78;5032824;28;20566;-77
2022/08/04 05:45:07;;;;;;;11.73;3.38;;;;;;;21.16;72.04;100906.63;5039025;28;20037;-76
2022/08/04 05:47:33;;;;;;;10.55;3.72;;;;;;;21.16;72.32;100913.72;5021385;28;20041;-76
2022/08/04 05:50:04;;;;;;;14.35;3.80;;;;;;;21.34;71.70;100918.13;5007899;28;20502;-76
2022/08/04 05:52:31;;;;;;;11.65;3.45;;;;;;;21.43;71.38;100919.41;5017016;28;20047;-76
2022/08/04 05:54:59;;;;;;;10.60;2.90;;;;;;;21.54;71.60;100913.41;5023196;28;20037;-76
2022/08/04 05:57:29;;;;;;;8.88;3.88;;;;;;;21.68;71.17;100907.91;5004435;28;20033;-76
2022/08/04 05:59:57;;;;;;;11.15;3.28;;;;;;;21.84;69.55;100909.09;5024065;28;20343;-76
2022/08/04 06:02:24;;;;;;;16.48;4.18;;;;;;;22.13;68.32;100902.09;5020228;28;20036;-76
2022/08/04 06:04:54;;;;;;;15.60;3.63;;;;;;;22.40;67.95;100906.94;5036242;28;20026;-76
2022/08/04 06:07:20;;;;;;;10.48;3.30;;;;;;;22.85;66.82;100898.31;5025802;28;20402;-76
2022/08/04 06:09:45;;;;;;;13.70;3.28;;;;;;;23.26;64.53;100909.69;5022579;28;20039;-77
2022/08/04 06:12:19;;;;;;;8.98;3.22;;;;;;;23.50;63.30;100897.13;5029141;23;20044;-78
2022/08/04 06:14:49;;;;;;;17.98;4.40;;;;;;;23.84;61.27;100905.91;5023406;28;20116;-76
2022/08/04 06:17:24;;;;;;;14.38;3.45;;;;;;;24.00;60.22;100900.84;5026528;28;20033;-76
2022/08/04 06:19:52;;;;;;;7.47;3.15;;;;;;;24.10;60.11;100901.78;5031073;28;20520;-75
2022/08/04 06:22:18;;;;;;;16.55;3.90;;;;;;;24.43;59.86;100905.41;5024115;28;20384;-76
2022/08/04 06:24:47;;;;;;;12.00;3.80;;;;;;;24.79;58.87;100902.38;5035168;28;20021;-76
2022/08/04 06:27:14;;;;;;;15.15;3.55;;;;;;;25.08;58.57;100892.34;5040072;28;20041;-75
2022/08/04 06:29:42;;;;;;;12.93;3.47;;;;;;;25.34;56.91;100893.41;5038618;28;20416;-77
2022/08/04 06:32:26;;;;;;;11.98;3.05;;;;;;;25.65;56.38;100893.66;5020221;28;20046;-76
2022/08/04 06:34:58;;;;;;;10.45;2.80;;;;;;;25.83;55.16;100892.47;5040837;28;20477;-76
2022/08/04 06:37:26;;;;;;;13.32;3.92;;;;;;;26.04;55.33;100896.06;5022265;28;20033;-76
2022/08/04 06:39:52;;;;;;;10.82;2.97;;;;;;;26.07;53.71;100895.56;5021122;28;20043;-76
2022/08/04 06:42:23;;;;;;;9.25;2.53;;;;;;;26.11;54.14;100883.38;5042398;28;20044;-76
2022/08/04 06:44:58;;;;;;;7.03;2.70;;;;;;;26.18;53.64;100886.59;5014300;28;20039;-77
2022/08/04 06:47:24;;;;;;;11.95;3.83;;;;;;;26.26;53.59;100885.31;5022282;28;20037;-76
2022/08/04 06:49:53;;;;;;;10.50;2.80;;;;;;;26.47;52.73;100888.03;5040588;28;20079;-77
2022/08/04 06:52:19;;;;;;;12.23;2.78;;;;;;;26.41;51.50;100890.69;5037496;28;20029;-77
2022/08/04 06:54:46;;;;;;;6.15;2.67;;;;;;;26.65;51.34;100884.94;5021243;28;20468;-76
2022/08/04 06:57:19;;;;;;;14.02;3.17;;;;;;;26.74;51.31;100898.53;5024179;28;20048;-77
2022/08/04 06:59:49;;;;;;;11.88;3.03;;;;;;;26.84;51.48;100893.22;5033158;28;20085;-76
2022/08/04 07:02:21;;;;;;;9.80;3.00;;;;;;;27.14;50.92;100892.50;5027566;28;20044;-76
2022/08/04 07:04:47;;;;;;;13.13;3.20;;;;;;;27.33;50.31;100897.31;5024456;28;20028;-76
2022/08/04 07:07:15;;;;;;;9.00;2.70;;;;;;;27.40;50.09;100891.72;5043297;28;20128;-76
2022/08/04 07:09:40;;;;;;;10.57;2.60;;;;;;;27.80;48.55;100898.06;5043748;28;20078;-76
2022/08/04 07:12:06;;;;;;;8.98;1.83;;;;;;;28.21;48.85;100912.13;5042650;28;20037;-76
2022/08/04 07:14:36;;;;;;;5.28;2.42;;;;;;;28.40;48.99;100915.00;5038212;28;20044;-76
2022/08/04 07:17:07;;;;;;;7.85;2.75;;;;;;;28.30;49.19;100902.50;5042847;28;20408;-76
2022/08/04 07:19:35;;;;;;;5.65;2.08;;;;;;;28.96;47.56;100905.94;5015974;28;20034;-75
2022/08/04 07:22:02;;;;;;;5.10;2.30;;;;;;;29.53;46.66;100906.31;5008233;28;20041;-76
2022/08/04 07:24:32;;;;;;;10.20;2.42;;;;;;;30.07;45.23;100897.25;5022481;28;20037;-76
2022/08/04 07:26:59;;;;;;;5.20;2.58;;;;;;;30.29;43.58;100895.97;5041743;28;20048;-76
2022/08/04 07:29:25;;;;;;;10.73;2.38;;;;;;;29.92;44.56;100905.44;5038536;28;20075;-76
2022/08/04 07:31:52;;;;;;;4.93;2.05;;;;;;;29.82;44.03;100900.19;5037915;28;20432;-76
2022/08/04 07:34:18;;;;;;;10.23;3.03;;;;;;;29.50;44.63;100902.34;5041850;28;20028;-76
2022/08/04 07:36:44;;;;;;;11.52;3.15;;;;;;;29.87;43.82;100897.47;5036154;28;20033;-76
2022/08/04 07:39:10;;;;;;;10.68;2.63;;;;;;;30.39;43.55;100887.03;5042038;28;20021;-75
2022/08/04 07:41:36;;;;;;;7.97;2.65;;;;;;;30.74;42.38;100887.63;5044981;28;20505;-76
2022/08/04 07:44:02;;;;;;;15.50;3.55;;;;;;;31.05;41.83;100886.13;5043925;28;20032;-76
2022/08/04 07:46:28;;;;;;;7.43;2.30;;;;;;;31.58;41.45;100885.00;5028049;28;20045;-76
2022/08/04 07:48:54;;;;;;;12.23;2.10;;;;;;;31.86;41.24;100898.41;5027072;28;20033;-77
2022/08/04 07:51:19;;;;;;;8.45;2.13;;;;;;;32.20;39.61;100898.03;5042922;28;20029;-76
2022/08/04 07:53:46;;;;;;;10.25;3.70;;;;;;;32.45;39.95;100892.44;5045120;28;20037;-76
2022/08/04 07:56:14;;;;;;;9.80;2.90;;;;;;;32.72;39.09;100891.59;5026669;28;20029;-76
2022/08/04 07:58:39;;;;;;;8.25;2.47;;;;;;;32.76;38.96;100887.22;5010625;28;20045;-76
2022/08/04 08:01:05;;;;;;;13.20;2.72;;;;;;;32.83;38.66;100886.78;5039584;28;20028;-76
2022/08/04 08:03:31;;;;;;;10.70;2.28;;;;;;;33.16;38.08;100882.78;5014865;28;20032;-76
2022/08/04 08:05:56;;;;;;;12.80;2.30;;;;;;;33.36;37.81;100878.81;5030700;28;20029;-76
2022/08/04 08:08:22;;;;;;;7.72;2.13;;;;;;;33.68;36.66;100882.31;5008833;28;20603;-76
2022/08/04 08:10:47;;;;;;;9.00;2.67;;;;;;;33.96;36.47;100887.44;5026240;28;20033;-76
2022/08/04 08:13:14;;;;;;;11.70;2.25;;;;;;;34.09;35.85;100883.06;5026827;28;20064;-76
2022/08/04 08:15:42;;;;;;;11.30;2.42;;;;;;;34.45;34.89;100879.34;5030411;28;20111;-76
2022/08/04 08:18:08;;;;;;;11.52;3.42;;;;;;;34.41;35.04;100886.47;5023308;28;20047;-76
2022/08/04 08:20:34;;;;;;;16.58;2.35;;;;;;;34.16;35.05;100880.72;5025032;28;20037;-76
2022/08/04 08:23:01;;;;;;;7.90;2.75;;;;;;;34.50;35.87;100881.88;5017941;28;20104;-75
2022/08/04 08:25:26;;;;;;;10.60;2.28;;;;;;;34.36;35.62;100882.03;5012523;28;20033;-77
2022/08/04 08:27:52;;;;;;;9.50;2.13;;;;;;;33.75;35.97;100882.63;5041506;28;20052;-76
2022/08/04 08:30:17;;;;;;;6.55;2.00;;;;;;;33.21;37.80;100886.44;5023105;28;20044;-76
2022/08/04 08:32:43;;;;;;;7.30;1.90;;;;;;;32.74;38.38;100884.06;5010525;28;20054;-76
2022/08/04 08:35:08;;;;;;;11.75;2.47;;;;;;;32.37;39.48;100884.00;5042005;28;20555;-76
2022/08/04 08:37:36;;;;;;;11.25;2.20;;;;;;;32.06;40.37;100891.91;5010592;28;20040;-76
2022/08/04 08:40:31;;;;;;;10.82;2.08;;;;;;;31.96;40.99;100882.13;5043444;28;20044;-76
2022/08/04 08:43:22;;;;;;;12.82;2.28;;;;;;;32.56;38.83;100875.03;5022245;28;20390;-76
2022/08/04 08:46:12;;;;;;;9.35;3.17;;;;;;;32.75;37.73;100881.03;5040553;28;20040;-76
2022/08/04 08:48:47;;;;;;;5.90;2.53;;;;;;;32.54;39.21;100885.28;5024772;28;20064;-76
2022/08/04 08:51:37;;;;;;;7.65;2.22;;;;;;;32.85;39.14;100884.59;5041918;28;20036;-76
2022/08/04 08:54:14;;;;;;;12.68;2.15;;;;;;;33.58;39.14;100882.53;5039437;28;20037;-77
2022/08/04 08:56:45;;;;;;;10.88;2.70;;;;;;;34.26;36.96;100885.78;5041855;28;20032;-76
2022/08/04 08:59:29;;;;;;;7.95;1.90;;;;;;;34.54;35.57;100877.44;5025453;28;20116;-75
2022/08/04 09:02:23;;;;;;;11.38;2.47;;;;;;;34.91;35.23;100875.25;5031056;28;20056;-75
2022/08/04 09:05:20;;;;;;;13.50;1.75;;;;;;;35.10;33.99;100875.69;5019860;28;20091;-76
2022/08/04 09:08:12;;;;;;;8.50;1.73;;;;;;;34.81;34.66;100889.03;5035646;28;20029;-77
2022/08/04 09:10:43;;;;;;;11.17;1.70;;;;;;;35.05;33.64;100880.44;5020528;28;20033;-76
2022/08/04 09:13:39;;;;;;;8.05;1.70;;;;;;;35.74;32.16;100881.38;5006927;28;20609;-76
2022/08/04 09:16:17;;;;;;;4.95;1.48;;;;;;;36.20;32.42;100887.81;5041684;28;20247;-76
2022/08/04 09:18:58;;;;;;;11.32;2.08;;;;;;;35.95;31.96;100881.44;5038309;28;20547;-76
2022/08/04 09:21:44;;;;;;;5.63;1.73;;;;;;;35.76;33.19;100885.34;5043105;28;20132;-77
2022/08/04 09:24:12;;;;;;;7.65;1.45;;;;;;;36.09;31.64;100890.06;5005232;28;20056;-73
2022/08/04 09:26:58;;;;;;;4.90;1.45;;;;;;;36.31;31.79;100886.31;5005671;28;20449;-74
2022/08/04 09:29:56;;;;;;;9.23;1.58;;;;;;;36.21;32.23;100898.28;5040858;28;20056;-74
2022/08/04 09:32:37;;;;;;;5.97;1.40;;;;;;;36.41;31.80;100893.22;5010187;28;20559;-75
2022/08/04 09:35:33;;;;;;;7.68;1.52;;;;;;;36.30;32.13;100897.41;5027496;28;20033;-73
2022/08/04 09:38:22;;;;;;;6.13;1.65;;;;;;;36.34;31.50;100895.66;5023773;28;20047;-73
2022/08/04 09:41:22;;;;;;;11.10;1.83;;;;;;;35.84;32.08;100897.19;5019819;28;20485;-74
2022/08/04 09:44:25;;;;;;;9.80;1.83;;;;;;;35.57;33.13;100895.72;5010615;28;20168;-73
2022/08/04 09:47:04;;;;;;;4.55;1.63;;;;;;;35.24;33.09;100905.13;5035466;28;20564;-74
2022/08/04 09:49:40;;;;;;;5.97;1.42;;;;;;;35.14;33.42;100901.97;5043101;28;20076;-73
2022/08/04 09:52:22;;;;;;;6.10;1.60;;;;;;;34.93;34.23;100904.56;5034017;28;20040;-73
2022/08/04 09:55:17;;;;;;;7.63;1.98;;;;;;;34.76;34.46;100911.53;5019391;28;20032;-75
2022/08/04 09:58:12;;;;;;;6.78;1.85;;;;;;;34.63;34.77;100913.22;5016953;28;20037;-74
2022/08/04 10:00:52;;;;;;;7.03;1.98;;;;;;;34.57;34.97;100919.88;5037020;28;20083;-74
2022/08/04 10:03:24;;;;;;;4.00;1.55;;;;;;;34.66;36.09;100927.94;5023835;28;20040;-74
2022/08/04 10:06:13;;;;;;;4.73;1.83;;;;;;;34.44;36.53;100931.59;5007383;28;20437;-75
2022/08/04 10:08:59;;;;;;;3.72;1.48;;;;;;;34.32;35.04;100924.91;5038557;28;20122;-75
2022/08/04 10:11:53;;;;;;;5.90;1.25;;;;;;;34.00;36.42;100925.25;5023419;28;20044;-77
2022/08/04 10:14:31;;;;;;;7.95;1.42;;;;;;;33.95;35.84;100928.91;5040116;28;20025;-76
2022/08/04 10:17:25;;;;;;;8.02;2.20;;;;;;;33.58;36.39;100938.19;5021922;28;20394;-76
2022/08/04 10:20:04;;;;;;;5.72;1.92;;;;;;;33.96;36.54;100937.75;5040630;28;20719;-76
2022/08/04 10:22:36;;;;;;;3.90;2.08;;;;;;;33.94;36.43;100930.81;5044019;28;20160;-75
2022/08/04 10:25:22;;;;;;;4.10;1.30;;;;;;;33.49;37.99;100941.63;5016432;28;20033;-75
2022/08/04 10:27:56;;;;;;;6.50;1.70;;;;;;;33.89;38.55;100944.38;5006911;28;20445;-76
2022/08/04 10:30:23;;;;;;;8.38;2.22;;;;;;;34.14;37.44;100952.84;5038424;28;20075;-81
2022/08/04 10:33:09;;;;;;;7.28;1.92;;;;;;;34.05;37.26;100947.44;5016751;28;20521;-76
2022/08/04 10:35:45;;;;;;;8.35;1.90;;;;;;;33.83;37.94;100948.31;5043110;28;20048;-75
2022/08/04 10:38:15;;;;;;;11.77;2.25;;;;;;;33.91;37.45;100957.50;5040195;28;20124;-74
2022/08/04 10:40:44;;;;;;;7.72;2.33;;;;;;;33.98;36.98;100951.66;4998240;28;20693;-77
2022/08/04 10:43:34;;;;;;;9.20;2.65;;;;;;;33.71;36.70;100951.56;5016318;28;20033;-75
2022/08/04 10:46:15;;;;;;;9.82;2.15;;;;;;;33.77;37.03;100951.44;5022897;28;20045;-76
2022/08/04 10:48:58;;;;;;;7.63;2.13;;;;;;;33.89;36.51;100944.38;5039580;28;20040;-75
2022/08/04 10:51:43;;;;;;;10.88;2.60;;;;;;;33.72;36.80;100952.38;5023040;28;20039;-75
2022/08/04 10:54:14;;;;;;;11.95;2.00;;;;;;;33.51;36.53;100946.66;5037026;28;20036;-77
2022/08/04 10:56:52;;;;;;;6.72;1.77;;;;;;;33.40;37.44;100956.09;5039188;28;20437;-75
2022/08/04 10:59:27;;;;;;;5.93;1.67;;;;;;;33.45;36.80;100959.44;5007989;28;20030;-76
2022/08/04 11:02:01;;;;;;;6.20;1.63;;;;;;;33.42;37.31;100961.94;5018893;28;20029;-77
2022/08/04 11:04:46;;;;;;;12.13;1.88;;;;;;;33.22;36.98;100957.88;5019018;28;20039;-77
2022/08/04 11:07:14;;;;;;;8.43;2.40;;;;;;;33.19;37.17;100956.59;5039569;28;20561;-76
2022/08/04 11:09:42;;;;;;;4.70;2.10;;;;;;;33.13;37.35;100960.50;5018602;28;20032;-75
2022/08/04 11:12:25;;;;;;;9.57;1.75;;;;;;;32.98;37.06;100973.16;5043344;28;20033;-80
2022/08/04 11:15:00;;;;;;;3.70;1.52;;;;;;;32.85;37.87;100975.88;5048343;28;20469;-76
2022/08/04 11:17:32;;;;;;;6.38;1.63;;;;;;;32.91;37.44;100978.16;5033119;28;20033;-76
2022/08/04 11:20:12;;;;;;;3.13;1.42;;;;;;;32.85;37.63;100975.88;5028722;28;20033;-76
2022/08/04 11:22:47;;;;;;;6.68;1.50;;;;;;;32.74;37.94;100988.72;5008565;28;20089;-75
2022/08/04 11:25:21;;;;;;;5.07;2.00;;;;;;;32.46;38.88;100985.25;5014449;28;20603;-76
2022/08/04 11:28:02;;;;;;;5.45;1.90;;;;;;;32.42;38.83;100982.38;5023380;28;20040;-76
2022/08/04 11:30:34;;;;;;;4.38;1.60;;;;;;;32.25;38.76;100982.97;5013418;28;20037;-77
2022/08/04 11:33:15;;;;;;;;;;;;;;;32.07;38.93;100981.19;5025946;28;20041;-77
2022/08/04 11:35:54;;;;;;;6.50;1.73;;;;;;;31.97;39.13;100984.81;5023840;28;19913;-76
2022/08/04 11:38:44;;;;;;;2.45;1.70;;;;;;;31.98;39.81;100981.81;5028303;28;20476;-76
2022/08/04 11:41:16;;;;;;;4.95;1.83;;;;;;;32.28;39.11;100981.56;5026650;28;20124;-77
2022/08/04 11:43:54;;;;;;;4.70;1.75;;;;;;;32.13;39.46;100983.44;5029778;28;20029;-76
2022/08/04 11:46:35;;;;;;;10.55;1.85;;;;;;;31.96;40.48;100991.25;5038894;28;20032;-76
2022/08/04 11:49:19;;;;;;;5.10;1.83;;;;;;;31.55;41.74;100990.09;5023476;28;20132;-74
2022/08/04 11:51:46;;;;;;;8.25;1.73;;;;;;;31.47;42.25;100997.97;5015296;28;20044;-76
2022/08/04 11:54:13;;;;;;;9.90;2.13;;;;;;;31.17;42.02;101000.00;5047608;28;20040;-75
2022/08/04 11:56:39;;;;;;;9.85;2.13;;;;;;;31.24;42.57;101006.56;5029318;28;20025;-76
2022/08/04 11:59:07;;;;;;;9.52;2.15;;;;;;;31.08;42.31;101007.09;5040491;23;20056;-70
2022/08/04 12:01:55;;;;;;;9.25;5.38;;;;;;;31.21;41.85;101012.53;5042133;28;20621;-70
2022/08/04 12:04:50;;;;;;;5.18;1.42;;;;;;;31.04;42.08;101009.53;5058661;28;20033;-70
2022/08/04 12:07:39;;;;;;;14.07;1.88;;;;;;;31.09;42.67;101017.50;5029894;28;20053;-70
2022/08/04 12:12:46;;;;;;;4.75;1.77;;;;;;;31.35;42.31;101003.75;5035814;28;20098;-74
2022/08/04 12:15:22;;;;;;;5.10;2.03;;;;;;;31.56;41.90;101007.72;5040234;28;20048;-74